Time;durP1;ratioP1;P1;durP2;ratioP2;P2;SDS_P1;SDS_P2;PMS_P1;PMS_P2;Temp;Humidity;BMP_temperature;BMP_pressure;BME280_temperature;BME280_humidity;BME280_pressure;Samples;Min_cycle;Max_cycle;Signal;HPM_P1;HPM_P2
2022/08/22 05:01:42;;;;;;;200.50;101.85;;;;;;;20.94;47.66;100377.34;5190904;23;1617146;-87
2022/08/22 05:04:12;;;;;;;238.95;103.57;;;;;;;20.98;47.63;100367.91;4955590;29;20039;-90
2022/08/22 05:07:16;;;;;;;219.48;105.68;;;;;;;21.08;48.10;100374.94;4937403;29;20058;-87
2022/08/22 05:10:18;;;;;;;206.80;102.28;;;;;;;21.10;48.04;100367.03;4954796;29;20138;-90
2022/08/22 05:12:54;;;;;;;207.50;104.38;;;;;;;21.04;47.20;100332.31;4923076;29;20141;-86
2022/08/22 05:15:34;;;;;;;206.55;105.32;;;;;;;21.19;47.45;100362.13;4939925;29;20039;-84
2022/08/22 05:18:08;;;;;;;208.30;106.53;;;;;;;21.21;48.98;100351.41;4940579;29;20488;-85
2022/08/22 05:24:00;;;;;;;213.52;107.10;;;;;;;21.00;47.96;100310.00;4954713;29;20043;-92
2022/08/22 05:26:34;;;;;;;237.90;111.50;;;;;;;21.38;47.43;100355.03;4956870;29;20051;-87
2022/08/22 05:29:11;;;;;;;218.60;112.07;;;;;;;21.39;46.95;100340.78;4957470;29;20043;-92
2022/08/22 05:32:43;;;;;;;223.13;108.88;;;;;;;21.54;47.90;100355.81;4940927;29;20047;-90
2022/08/22 05:35:09;;;;;;;226.23;109.00;;;;;;;21.25;47.73;100298.66;4938213;29;20047;-88
2022/08/22 05:37:43;;;;;;;214.55;110.03;;;;;;;21.55;47.36;100332.38;4940587;29;20059;-88
2022/08/22 05:40:23;;;;;;;208.60;110.40;;;;;;;21.70;47.35;100345.47;4927529;29;21630;-86
2022/08/22 05:42:50;;;;;;;218.02;108.82;;;;;;;21.68;46.85;100333.06;4927681;29;20040;-91
2022/08/22 05:45:18;;;;;;;212.05;107.65;;;;;;;21.64;47.13;100309.94;4942126;29;20074;-93
2022/08/22 05:48:04;;;;;;;219.80;109.70;;;;;;;21.86;46.46;100322.34;4955881;29;20050;-87
2022/08/22 05:50:42;;;;;;;218.35;106.78;;;;;;;22.12;46.08;100344.78;4922796;29;20054;-86
2022/08/22 05:57:53;;;;;;;215.93;104.75;;;;;;;22.45;45.21;100337.91;4958473;29;20043;-86
2022/08/22 06:04:30;;;;;;;198.57;104.20;;;;;;;22.77;44.72;100357.22;4953348;29;20097;-91
2022/08/22 06:07:19;;;;;;;199.57;102.07;;;;;;;22.83;44.82;100355.75;4939052;29;20051;-93
2022/08/22 06:10:54;;;;;;;197.07;99.60;;;;;;;22.89;44.00;100366.22;4942293;23;20055;-87
2022/08/22 06:14:23;;;;;;;199.98;101.75;;;;;;;22.97;44.78;100375.53;4939963;29;20050;-87
2022/08/22 06:17:46;;;;;;;194.50;103.75;;;;;;;23.02;43.69;100369.66;4924608;29;20134;-87
2022/08/22 06:21:11;;;;;;;214.60;109.07;;;;;;;23.06;45.18;100367.75;4939533;29;20098;-85
2022/08/22 06:24:39;;;;;;;211.73;107.53;;;;;;;23.10;43.21;100367.78;4948337;29;20129;-86
2022/08/22 06:27:25;;;;;;;203.55;106.68;;;;;;;23.10;43.47;100368.59;4955477;23;20058;-88
2022/08/22 06:30:01;;;;;;;192.18;103.95;;;;;;;23.21;43.53;100377.16;4960042;28;20034;-90
2022/08/22 06:32:58;;;;;;;193.98;102.90;;;;;;;23.12;43.77;100354.28;4947672;28;20057;-87
2022/08/22 06:38:54;;;;;;;206.73;99.47;;;;;;;23.47;42.33;100365.22;4924776;29;20043;-94
2022/08/22 06:45:32;;;;;;;184.43;98.50;;;;;;;23.39;42.64;100355.13;4936364;29;20418;-87
2022/08/22 06:48:27;;;;;;;194.18;96.90;;;;;;;23.66;42.69;100383.84;4925517;29;20040;-88
2022/08/22 06:51:07;;;;;;;185.15;95.10;;;;;;;23.32;43.75;100319.56;4907002;29;20339;-93
2022/08/22 06:57:05;;;;;;;184.18;96.68;;;;;;;23.54;43.35;100322.66;4932178;23;20056;-89
2022/08/22 07:06:36;;;;;;;217.00;93.43;;;;;;;24.05;43.30;100376.06;4871323;29;20194;-95
2022/08/22 07:09:22;;;;;;;184.70;92.53;;;;;;;23.54;43.36;100295.56;4883069;23;20093;-89
2022/08/22 07:12:03;;;;;;;;;;;;;;;24.05;43.20;100386.44;4971585;23;20043;-90
2022/08/22 07:15:15;;;;;;;170.73;93.28;;;;;;;24.00;42.86;100383.97;4954913;29;19926;-90
2022/08/22 07:39:56;;;;;;;149.60;76.40;;;;;;;24.84;41.43;100393.81;4912483;23;20055;-90
2022/08/22 07:43:15;;;;;;;146.00;75.50;;;;;;;24.93;41.88;100387.91;4942468;29;20047;-95
2022/08/22 07:46:10;;;;;;;144.63;76.50;;;;;;;24.73;41.90;100350.94;4942795;29;20513;-93
2022/08/22 07:55:09;;;;;;;152.30;76.43;;;;;;;25.14;42.16;100374.16;4946611;28;20067;-92
2022/08/22 08:01:52;;;;;;;145.52;77.03;;;;;;;25.09;41.85;100332.50;4971533;23;20644;-95
2022/08/22 08:34:52;;;;;;;178.43;89.68;;;;;;;25.44;41.40;100317.22;4948816;23;20055;-91
2022/08/22 08:37:26;;;;;;;173.43;87.72;;;;;;;25.76;39.66;100371.44;4907271;29;20075;-92
2022/08/22 08:39:58;;;;;;;160.45;84.80;;;;;;;25.85;41.18;100373.09;4907687;29;20058;-88
2022/08/22 08:46:09;;;;;;;145.38;77.15;;;;;;;26.06;41.14;100373.22;4920021;29;20063;-91
2022/08/22 08:49:12;;;;;;;164.80;87.05;;;;;;;26.13;40.13;100366.84;4888755;29;20051;-88
2022/08/22 08:52:09;;;;;;;158.77;84.63;;;;;;;26.24;41.26;100373.31;4864917;29;20049;-89
2022/08/22 08:55:10;;;;;;;172.85;89.07;;;;;;;26.30;40.26;100374.53;4861789;29;20217;-89
2022/08/22 08:58:03;;;;;;;180.43;92.63;;;;;;;26.31;38.77;100378.94;4838898;29;20060;-89
2022/08/22 09:00:57;;;;;;;177.13;91.68;;;;;;;26.39;40.22;100374.97;4865645;29;20045;-95
2022/08/22 09:03:31;;;;;;;197.43;95.50;;;;;;;26.43;38.85;100372.19;4836500;29;20060;-93
2022/08/22 09:06:18;;;;;;;177.85;92.60;;;;;;;26.52;39.16;100377.44;4865510;29;20072;-89
2022/08/22 09:09:09;;;;;;;163.68;86.90;;;;;;;26.63;39.10;100379.09;4862104;29;20135;-89
2022/08/22 09:12:06;;;;;;;148.00;73.68;;;;;;;26.75;38.40;100375.09;4847348;29;20447;-93
2022/08/22 09:14:51;;;;;;;139.40;68.55;;;;;;;26.83;38.54;100387.94;4869867;29;20053;-94
2022/08/22 09:17:45;;;;;;;123.22;67.32;;;;;;;26.91;36.68;100388.75;4884269;29;20048;-93
2022/08/22 09:20:24;;;;;;;138.70;72.75;;;;;;;26.90;38.69;100365.50;4855644;29;20103;-90
2022/08/22 09:23:23;;;;;;;184.10;95.68;;;;;;;26.67;38.72;100318.19;4869227;29;20091;-94
2022/08/22 09:26:09;;;;;;;175.35;86.55;;;;;;;27.19;38.27;100376.00;4855395;29;20447;-95
2022/08/22 09:28:52;;;;;;;149.63;80.65;;;;;;;27.27;38.47;100388.84;4918761;29;20048;-90
2022/08/22 09:31:47;;;;;;;143.15;74.47;;;;;;;27.25;38.03;100383.63;4937818;29;20048;-89
2022/08/22 09:34:29;;;;;;;142.95;68.88;;;;;;;27.24;38.29;100378.41;4927079;29;20154;-94
2022/08/22 09:37:15;;;;;;;115.18;62.67;;;;;;;27.37;38.47;100383.22;4930700;29;20067;-86
2022/08/22 09:40:07;;;;;;;124.68;63.95;;;;;;;27.08;36.22;100337.44;4920173;29;20051;-88
2022/08/22 09:43:27;;;;;;;145.90;65.57;;;;;;;27.34;37.74;100364.34;4894340;29;20079;-88
2022/08/22 09:46:04;;;;;;;138.07;66.65;;;;;;;27.41;37.73;100361.53;4873315;29;20041;-89
2022/08/22 09:49:03;;;;;;;136.10;69.20;;;;;;;27.50;37.57;100358.31;4854562;29;20041;-88
2022/08/22 09:52:04;;;;;;;135.00;66.13;;;;;;;27.75;37.85;100377.13;4878220;29;20049;-88
2022/08/22 09:55:03;;;;;;;;;;;;;;;27.83;37.50;100367.53;4865694;29;20073;-90
2022/08/22 09:58:12;;;;;;;136.83;66.70;;;;;;;27.84;38.38;100344.63;4869608;29;19923;-88
2022/08/22 10:01:22;;;;;;;117.40;65.75;;;;;;;28.13;38.15;100364.22;4829514;29;20055;-89
2022/08/22 10:04:15;;;;;;;110.38;57.55;;;;;;;28.22;37.01;100372.25;4846365;29;20045;-89
2022/08/22 10:07:02;;;;;;;106.03;56.83;;;;;;;28.12;37.06;100333.72;4862777;29;20427;-88
2022/08/22 10:10:02;;;;;;;105.97;53.40;;;;;;;28.08;35.14;100334.53;4862564;29;20427;-88
2022/08/22 10:13:02;;;;;;;109.63;56.97;;;;;;;28.29;37.25;100370.19;4879334;29;20045;-95
2022/08/22 10:16:23;;;;;;;118.35;52.60;;;;;;;28.25;37.24;100360.97;4866384;29;20398;-87
2022/08/22 10:19:21;;;;;;;100.38;49.75;;;;;;;28.28;36.41;100368.59;4919803;29;20051;-89
2022/08/22 10:22:13;;;;;;;99.10;48.88;;;;;;;28.33;36.41;100365.34;4915339;29;20526;-89
2022/08/22 10:24:58;;;;;;;100.45;46.83;;;;;;;28.45;36.28;100366.94;4914818;29;20474;-87
2022/08/22 10:28:04;;;;;;;95.30;47.50;;;;;;;28.32;35.54;100327.19;4902111;29;20048;-86
2022/08/22 10:30:53;;;;;;;96.40;47.08;;;;;;;28.61;36.99;100369.28;4917924;29;20130;-91
2022/08/22 10:33:53;;;;;;;90.40;44.25;;;;;;;28.69;34.57;100358.75;4934616;29;20078;-89
2022/08/22 10:37:04;;;;;;;86.93;40.33;;;;;;;28.78;35.80;100365.53;4881642;29;20056;-96
2022/08/22 10:39:39;;;;;;;81.18;42.58;;;;;;;28.83;34.99;100361.47;4884604;29;20135;-96
2022/08/22 10:49:02;;;;;;;67.40;30.25;;;;;;;28.74;34.65;100310.47;4968534;23;20119;-96
2022/08/22 10:51:56;;;;;;;79.97;35.17;;;;;;;29.02;35.20;100341.28;4957974;29;20509;-89
2022/08/22 10:54:32;;;;;;;72.68;33.47;;;;;;;29.11;34.64;100340.81;4923202;28;20047;-90
2022/08/22 10:57:39;;;;;;;58.10;27.20;;;;;;;29.27;33.46;100352.34;4928468;29;20039;-91
2022/08/22 11:04:46;;;;;;;71.10;29.10;;;;;;;29.36;31.29;100340.56;4931058;29;20133;-88
2022/08/22 11:07:57;;;;;;;74.72;32.10;;;;;;;29.45;31.98;100348.53;4912146;29;20052;-89
2022/08/22 11:10:43;;;;;;;85.57;28.52;;;;;;;29.40;31.69;100337.72;4912162;29;20104;-88
2022/08/22 11:13:31;;;;;;;56.42;23.23;;;;;;;29.60;32.11;100360.50;4913196;29;20052;-90
2022/08/22 11:16:23;;;;;;;43.38;21.25;;;;;;;29.72;32.55;100359.97;4880775;29;20051;-92
2022/08/22 11:19:12;;;;;;;57.22;23.10;;;;;;;29.73;32.35;100348.31;4856972;29;20047;-92
2022/08/22 11:21:50;;;;;;;70.57;23.20;;;;;;;29.83;30.97;100349.38;4895194;29;20040;-88
2022/08/22 11:24:57;;;;;;;67.32;28.67;;;;;;;29.84;32.61;100347.38;4865221;29;20055;-86
2022/08/22 11:27:42;;;;;;;75.25;30.85;;;;;;;29.75;32.01;100349.91;4910709;29;20055;-90
2022/08/22 11:30:32;;;;;;;70.23;34.50;;;;;;;29.72;32.85;100354.34;4912127;29;20039;-91
2022/08/22 11:33:35;;;;;;;74.38;33.50;;;;;;;29.76;32.12;100343.03;4901329;29;20284;-89
2022/08/22 11:36:24;;;;;;;71.70;32.42;;;;;;;29.63;32.95;100332.28;4816450;29;20485;-88
2022/08/22 11:39:21;;;;;;;68.05;34.20;;;;;;;29.83;32.51;100348.59;4823589;29;20049;-89
2022/08/22 11:42:52;;;;;;;86.25;36.92;;;;;;;29.86;32.48;100340.09;4828675;29;20042;-91
2022/08/22 11:46:05;;;;;;;78.97;35.30;;;;;;;29.98;31.80;100343.59;4845106;29;20984;-88
2022/08/22 11:49:14;;;;;;;95.28;35.30;;;;;;;30.12;32.49;100341.38;4824720;29;20465;-88
2022/08/22 11:52:05;;;;;;;75.50;36.53;;;;;;;30.23;33.06;100338.47;4849319;29;20057;-88
2022/08/22 11:54:41;;;;;;;73.93;34.92;;;;;;;30.25;33.49;100333.19;4859202;29;20139;-88
2022/08/22 11:57:15;;;;;;;57.10;29.73;;;;;;;30.27;31.37;100330.78;4844974;29;20049;-92
2022/08/22 12:00:04;;;;;;;72.05;29.98;;;;;;;30.09;33.04;100318.88;4873765;29;20114;-88
2022/08/22 12:03:24;;;;;;;68.63;27.90;;;;;;;30.19;31.53;100321.59;4853757;29;20056;-88
2022/08/22 12:06:13;;;;;;;57.80;25.02;;;;;;;30.34;31.35;100332.69;4813726;29;20038;-93
2022/08/22 12:09:04;;;;;;;52.08;25.27;;;;;;;30.39;30.83;100338.66;4835659;29;20176;-90
2022/08/22 12:11:54;;;;;;;49.60;22.90;;;;;;;30.40;30.96;100333.81;4882660;29;20057;-89
2022/08/22 12:15:04;;;;;;;55.38;19.60;;;;;;;30.42;30.99;100337.00;4911256;29;20046;-93
2022/08/22 12:18:08;;;;;;;55.92;22.95;;;;;;;30.38;30.29;100337.06;4908365;29;20528;-88
2022/08/22 12:21:20;;;;;;;59.65;26.88;;;;;;;30.44;30.83;100328.94;4940647;29;20054;-93
2022/08/22 12:24:08;;;;;;;41.75;18.30;;;;;;;30.39;30.25;100330.19;4957345;28;20057;-87
2022/08/22 12:27:12;;;;;;;30.67;10.77;;;;;;;30.36;30.75;100328.22;4910342;29;20126;-91
2022/08/22 12:29:49;;;;;;;39.28;14.23;;;;;;;30.46;29.95;100320.81;4909883;29;20413;-87
2022/08/22 12:32:32;;;;;;;42.00;16.10;;;;;;;30.55;29.21;100326.75;4910822;29;20063;-86
2022/08/22 12:35:33;;;;;;;34.72;9.77;;;;;;;30.52;30.13;100321.16;4941178;29;20043;-86
2022/08/22 12:38:42;;;;;;;24.10;9.30;;;;;;;30.24;30.47;100311.06;4911295;29;20046;-86
2022/08/22 12:41:34;;;;;;;40.55;10.15;;;;;;;30.22;28.84;100321.97;4938792;29;20877;-88
2022/08/22 12:44:28;;;;;;;33.80;8.18;;;;;;;30.28;30.55;100326.72;4955628;28;20043;-87
2022/08/22 12:47:19;;;;;;;21.70;8.40;;;;;;;30.33;30.48;100325.44;4937955;29;20039;-87
2022/08/22 12:50:42;;;;;;;44.13;8.60;;;;;;;30.17;29.29;100321.19;4908630;29;20043;-92
2022/08/22 12:57:00;;;;;;;25.05;8.45;;;;;;;29.73;30.21;100291.94;4953724;29;20604;-88
2022/08/22 12:59:40;;;;;;;33.47;9.48;;;;;;;29.83;30.57;100292.19;4923775;29;20043;-89
2022/08/22 13:02:24;;;;;;;35.08;8.88;;;;;;;29.53;31.30;100259.91;4924597;29;20106;-88
2022/08/22 13:04:58;;;;;;;25.45;9.95;;;;;;;30.02;31.40;100324.59;4957486;29;20133;-88
2022/08/22 13:07:35;;;;;;;19.77;8.02;;;;;;;29.73;29.64;100291.09;4927010;29;20625;-88
2022/08/22 13:17:20;;;;;;;32.28;7.95;;;;;;;29.52;32.82;100305.41;4840822;29;20046;-91
2022/08/22 13:20:26;;;;;;;26.60;7.40;;;;;;;29.58;31.92;100331.94;4969178;23;20122;-91
2022/08/22 13:23:47;;;;;;;25.70;6.82;;;;;;;29.10;31.63;100263.16;4936804;29;20523;-90
2022/08/22 13:26:16;;;;;;;28.02;7.43;;;;;;;29.48;31.56;100328.78;4890046;23;20060;-86
2022/08/22 13:29:04;;;;;;;29.17;9.52;;;;;;;29.17;33.09;100284.81;4899756;29;20111;-88
2022/08/22 13:31:37;;;;;;;23.25;7.63;;;;;;;29.36;32.98;100329.31;4915600;29;20529;-88
2022/08/22 13:34:53;;;;;;;24.52;7.25;;;;;;;29.32;32.99;100331.38;4917511;29;20119;-90
2022/08/22 13:37:48;;;;;;;38.63;8.07;;;;;;;29.29;33.00;100322.94;4918382;23;20585;-91
2022/08/22 13:41:02;;;;;;;;;;;;;;;29.27;32.87;100320.53;4881357;29;20073;-90
2022/08/22 13:44:05;;;;;;;40.53;8.20;;;;;;;29.12;33.96;100305.78;5033558;23;20593;-88
2022/08/22 14:10:41;;;;;;;27.00;8.52;;;;;;;28.61;34.40;100318.63;4905463;29;20063;-91
2022/08/22 14:16:29;;;;;;;35.90;8.63;;;;;;;28.46;34.34;100300.22;4937890;29;20047;-91
2022/08/22 14:19:20;;;;;;;21.23;7.68;;;;;;;28.33;34.85;100292.22;4906266;29;20048;-91
2022/08/22 14:31:13;;;;;;;39.72;8.55;;;;;;;28.01;36.74;100271.91;5102713;23;21389;-93
2022/08/22 14:34:28;;;;;;;35.35;9.23;;;;;;;28.28;35.75;100331.25;4891551;29;20058;-92
2022/08/22 14:37:17;;;;;;;38.40;8.13;;;;;;;28.07;35.42;100296.38;4905344;23;20067;-92
2022/08/22 14:43:13;;;;;;;34.65;8.45;;;;;;;28.13;35.28;100316.44;4937358;23;20063;-91
2022/08/22 14:46:13;;;;;;;35.97;9.18;;;;;;;27.89;35.33;100303.28;4871772;29;20075;-92
2022/08/22 14:49:25;;;;;;;31.20;9.10;;;;;;;27.90;36.34;100305.69;4913171;29;20107;-92
2022/08/22 15:13:13;;;;;;;39.20;9.10;;;;;;;27.21;38.01;100272.53;4941007;29;20560;-95
2022/08/22 15:23:14;;;;;;;22.95;7.03;;;;;;;27.37;37.37;100323.44;4969660;23;20055;-93
2022/08/22 15:26:11;;;;;;;31.38;7.13;;;;;;;27.08;37.89;100303.75;4910791;29;20130;-94
2022/08/22 15:33:35;;;;;;;40.30;7.57;;;;;;;26.94;35.91;100298.16;4892241;29;20496;-93
2022/08/22 15:40:09;;;;;;;31.42;7.80;;;;;;;26.60;36.17;100258.47;4923537;29;20051;-94
2022/08/22 15:46:32;;;;;;;38.05;7.93;;;;;;;26.70;35.90;100305.38;4942552;23;20059;-94
2022/08/22 15:52:25;;;;;;;30.35;8.43;;;;;;;26.80;37.30;100335.44;4992060;23;20059;-93
2022/08/22 15:55:29;;;;;;;37.63;8.05;;;;;;;26.74;37.48;100341.84;4905738;29;20058;-92
2022/08/22 15:58:22;;;;;;;30.30;6.72;;;;;;;26.67;36.48;100339.81;4920964;29;20040;-91
2022/08/22 16:01:22;;;;;;;26.15;8.35;;;;;;;26.58;36.33;100337.38;5028165;23;20104;-94
2022/08/22 16:04:23;;;;;;;31.70;9.18;;;;;;;26.20;36.93;100291.22;4915580;23;20084;-93
2022/08/22 16:07:36;;;;;;;31.65;11.43;;;;;;;26.45;36.86;100345.34;4917119;23;20056;-92
2022/08/22 16:10:27;;;;;;;28.73;10.15;;;;;;;26.40;36.72;100344.94;4909556;23;20154;-93
2022/08/22 16:13:44;;;;;;;36.58;9.40;;;;;;;26.33;37.42;100342.91;5151587;23;20548;-93
2022/08/22 16:16:57;;;;;;;32.50;9.35;;;;;;;26.26;37.01;100345.69;4903649;29;20044;-93
2022/08/22 16:23:21;;;;;;;41.72;11.77;;;;;;;26.13;37.62;100345.22;5056786;23;20063;-93
2022/08/22 16:27:10;;;;;;;61.25;11.45;;;;;;;26.06;37.95;100358.41;4927603;29;20043;-92
2022/08/22 16:30:15;;;;;;;37.50;9.20;;;;;;;25.83;37.07;100337.09;4925282;29;20074;-91
2022/08/22 16:32:55;;;;;;;40.70;8.13;;;;;;;25.49;36.06;100289.63;4874985;29;20130;-92
2022/08/22 16:36:05;;;;;;;40.58;7.55;;;;;;;25.92;36.56;100359.13;4868833;29;20513;-90
2022/08/22 16:38:51;;;;;;;33.78;7.97;;;;;;;25.89;36.23;100354.31;4879226;29;20068;-90
2022/08/22 16:41:31;;;;;;;57.63;9.98;;;;;;;25.82;36.42;100346.66;4917044;23;20055;-92
2022/08/22 16:48:38;;;;;;;41.38;9.13;;;;;;;25.80;36.21;100357.47;4938203;29;20051;-89
2022/08/22 16:51:13;;;;;;;48.65;10.75;;;;;;;25.72;36.78;100352.97;4938802;29;20078;-95
2022/08/22 16:53:59;;;;;;;;;;;;;;;25.66;36.55;100354.53;4925207;29;20371;-88
2022/08/22 16:57:09;;;;;;;46.47;13.65;;;;;;;25.57;36.53;100348.50;4906160;29;19926;-89
2022/08/22 16:59:53;;;;;;;46.35;12.65;;;;;;;25.43;36.78;100355.59;4923082;29;20059;-88
2022/08/22 17:03:07;;;;;;;48.63;11.70;;;;;;;25.00;37.06;100304.03;4922710;29;20134;-92
2022/08/22 17:05:57;;;;;;;55.30;12.05;;;;;;;25.19;37.69;100340.19;4887683;29;20048;-91
2022/08/22 17:08:56;;;;;;;40.67;12.18;;;;;;;25.29;38.23;100369.47;4901372;29;20040;-87
2022/08/22 17:12:24;;;;;;;65.75;13.43;;;;;;;25.09;37.67;100355.69;4946013;29;20491;-93
2022/08/22 17:15:08;;;;;;;57.53;13.10;;;;;;;25.18;38.27;100368.59;4902437;29;20055;-93
2022/08/22 17:17:49;;;;;;;44.47;12.98;;;;;;;25.00;38.21;100348.78;4928645;23;20031;-87
2022/08/22 17:20:54;;;;;;;60.20;14.80;;;;;;;25.07;38.12;100385.25;4899030;29;20048;-92
2022/08/22 17:23:55;;;;;;;44.45;14.23;;;;;;;25.04;38.74;100386.03;4890238;29;20043;-92
2022/08/22 17:27:20;;;;;;;59.22;15.48;;;;;;;24.68;39.33;100335.31;4904637;29;20044;-92
2022/08/22 17:29:58;;;;;;;;;;;;;;;24.98;39.45;100388.34;4878330;29;20124;-88
2022/08/22 17:32:44;;;;;;;66.70;15.32;;;;;;;24.94;39.19;100379.13;4878482;29;19939;-89
2022/08/22 17:35:22;;;;;;;51.35;14.18;;;;;;;24.78;39.43;100367.38;4830424;29;20045;-89
2022/08/22 17:38:33;;;;;;;59.47;13.52;;;;;;;24.87;39.49;100381.03;4860054;29;20090;-90
2022/08/22 17:41:38;;;;;;;64.10;13.68;;;;;;;24.84;39.46;100383.44;4858849;29;20072;-89
2022/08/22 17:44:46;;;;;;;75.20;14.20;;;;;;;24.82;39.41;100379.41;4824426;29;20050;-90
2022/08/22 17:47:27;;;;;;;66.90;14.23;;;;;;;24.60;39.65;100354.03;4841221;29;20140;-92
2022/08/22 17:59:50;;;;;;;44.50;11.70;;;;;;;24.74;39.63;100389.72;4851417;29;20257;-90
2022/08/22 18:02:48;;;;;;;69.50;13.98;;;;;;;24.69;40.58;100386.44;4912101;29;20052;-90
2022/08/22 18:05:29;;;;;;;44.72;11.70;;;;;;;24.45;40.75;100357.84;4882631;29;20041;-88
2022/08/22 18:08:39;;;;;;;49.35;11.80;;;;;;;24.58;40.68;100392.72;4894346;29;20076;-89
2022/08/22 18:11:19;;;;;;;72.07;12.23;;;;;;;24.55;40.79;100392.69;4890815;23;20439;-88
2022/08/22 18:14:07;;;;;;;51.55;11.90;;;;;;;24.51;40.87;100387.06;4921259;29;20050;-88
2022/08/22 18:16:54;;;;;;;46.83;12.93;;;;;;;24.38;41.21;100382.88;4932604;23;20059;-87
2022/08/22 18:19:39;;;;;;;50.80;12.23;;;;;;;24.29;41.02;100374.78;4921904;29;20097;-88
2022/08/22 18:22:30;;;;;;;54.95;12.48;;;;;;;24.35;40.99;100392.03;4932903;29;20046;-88
2022/08/22 18:25:00;;;;;;;40.75;12.15;;;;;;;24.35;41.45;100394.81;4916778;29;20568;-88
2022/08/22 18:27:44;;;;;;;47.05;12.60;;;;;;;24.30;40.88;100392.34;4954072;29;20051;-88
2022/08/22 18:30:20;;;;;;;51.70;12.45;;;;;;;24.24;41.50;100393.88;4922170;29;20051;-86
2022/08/22 18:33:12;;;;;;;59.35;12.57;;;;;;;24.12;41.88;100380.94;4954486;29;20043;-86
2022/08/22 18:35:47;;;;;;;53.33;13.45;;;;;;;24.17;41.27;100400.16;4936938;29;20055;-87
2022/08/22 18:38:34;;;;;;;76.13;14.50;;;;;;;24.01;41.75;100380.81;4938118;29;20098;-89
2022/08/22 18:41:21;;;;;;;62.45;12.73;;;;;;;24.09;41.58;100398.47;4935741;29;20042;-88
2022/08/22 18:43:51;;;;;;;55.08;12.77;;;;;;;23.91;41.41;100378.69;4919260;29;20047;-89
2022/08/22 18:46:42;;;;;;;60.35;12.02;;;;;;;23.79;41.58;100376.91;4937389;29;20457;-88
2022/08/22 18:49:18;;;;;;;48.58;11.63;;;;;;;23.81;41.97;100370.97;4902606;29;20110;-90
2022/08/22 18:52:15;;;;;;;36.08;10.77;;;;;;;23.83;42.11;100394.50;4922918;29;20412;-90
2022/08/22 18:55:18;;;;;;;56.28;10.52;;;;;;;23.82;42.54;100406.06;4919149;29;20047;-91
2022/08/22 18:59:05;;;;;;;40.95;9.95;;;;;;;23.73;43.10;100411.91;4929351;29;20068;-92
2022/08/22 19:01:53;;;;;;;35.33;10.20;;;;;;;23.67;42.77;100405.00;4937739;29;20062;-90
2022/08/22 19:08:37;;;;;;;;;;;;;;;23.53;43.95;100402.00;4925049;29;20047;-89
2022/08/22 19:11:55;;;;;;;24.65;8.95;;;;;;;23.51;42.94;100399.59;4938625;29;20017;-88
2022/08/22 19:14:47;;;;;;;24.63;9.98;;;;;;;23.46;43.15;100408.25;4895645;29;20040;-89
2022/08/22 19:17:46;;;;;;;31.90;10.68;;;;;;;23.40;43.42;100404.97;4896767;29;20051;-89
2022/08/22 19:23:45;;;;;;;;;;;;;;;23.34;44.00;100405.66;4908960;29;20642;-86
2022/08/22 19:26:33;;;;;;;41.83;12.02;;;;;;;23.26;43.80;100413.13;4893037;29;19924;-88
2022/08/22 19:29:20;;;;;;;27.70;11.10;;;;;;;23.15;43.65;100398.97;4893123;29;20049;-88
2022/08/22 19:31:56;;;;;;;30.98;11.80;;;;;;;23.27;44.33;100416.72;4889819;29;20470;-88
2022/08/22 19:34:28;;;;;;;35.92;12.43;;;;;;;23.26;44.06;100420.69;4895695;29;20040;-87
2022/08/22 19:37:15;;;;;;;36.50;13.05;;;;;;;23.25;43.99;100417.09;4910998;29;20049;-87
2022/08/22 19:39:42;;;;;;;42.92;12.57;;;;;;;23.11;43.80;100400.91;4890095;29;20515;-89
2022/08/22 19:42:33;;;;;;;30.45;13.05;;;;;;;23.22;43.88;100409.47;4906310;23;20506;-93
2022/08/22 19:45:08;;;;;;;36.30;17.27;;;;;;;23.10;44.12;100399.28;4938038;23;20048;-93
2022/08/22 19:47:58;;;;;;;37.30;14.23;;;;;;;22.77;43.97;100340.50;4841383;29;20599;-91
2022/08/22 19:50:32;;;;;;;36.92;13.52;;;;;;;22.94;44.73;100370.69;4896535;29;20524;-90
2022/08/22 19:53:54;;;;;;;31.80;13.80;;;;;;;23.23;44.14;100410.25;4895836;29;20047;-88
2022/08/22 19:57:18;;;;;;;58.15;14.93;;;;;;;23.23;45.18;100410.25;4906024;29;20041;-95
2022/08/22 20:00:28;;;;;;;46.80;15.35;;;;;;;23.21;44.56;100416.19;4888531;29;20055;-94
2022/08/22 20:03:18;;;;;;;38.78;15.32;;;;;;;23.17;44.64;100415.34;4885650;29;20051;-91
2022/08/22 20:09:37;;;;;;;47.70;15.52;;;;;;;22.60;44.76;100331.44;4845763;29;20068;-91
2022/08/22 20:12:32;;;;;;;34.88;16.48;;;;;;;23.13;44.54;100415.28;4857638;23;20058;-91
2022/08/22 20:15:28;;;;;;;33.60;16.45;;;;;;;23.13;44.42;100425.63;4885766;29;20048;-92
2022/08/22 20:56:56;;;;;;;87.15;25.67;;;;;;;22.45;46.64;100454.91;5122532;23;20059;-96
2022/08/22 21:00:23;;;;;;;84.13;26.35;;;;;;;22.38;47.00;100458.38;4964316;29;20416;-96
2022/08/22 21:03:33;;;;;;;;;;;;;;;;;;;;;
2022/08/22 21:12:36;;;;;;;79.53;25.10;;;;;;;21.61;47.46;100363.53;4945670;23;20340;-96
2022/08/22 21:15:03;;;;;;;;;;;;;;;22.16;47.64;100454.31;4937188;29;20039;-96
2022/08/22 21:17:52;;;;;;;85.00;26.95;;;;;;;21.91;48.17;100427.84;4942963;29;19947;-95
2022/08/22 21:20:21;;;;;;;65.88;25.92;;;;;;;21.87;47.93;100426.97;4932450;29;20126;-96
2022/08/22 21:23:02;;;;;;;70.40;25.33;;;;;;;21.47;48.12;100373.16;4913178;29;20134;-96
2022/08/22 21:25:35;;;;;;;78.25;26.45;;;;;;;21.82;47.91;100436.41;4939255;29;20055;-95
2022/08/22 21:28:04;;;;;;;67.75;25.58;;;;;;;21.69;48.29;100418.16;4928440;29;20094;-94
2022/08/22 21:30:35;;;;;;;81.28;27.00;;;;;;;21.46;48.03;100379.91;4969121;29;20051;-94
2022/08/22 21:33:15;;;;;;;71.82;26.77;;;;;;;21.80;48.26;100430.38;4976996;23;20093;-96
2022/08/22 21:36:12;;;;;;;71.40;26.23;;;;;;;22.04;48.15;100466.34;4987060;28;20054;-95
2022/08/22 21:38:54;;;;;;;66.47;26.73;;;;;;;21.86;47.77;100442.84;4939750;28;20094;-96
2022/08/22 21:42:49;;;;;;;78.15;26.92;;;;;;;22.01;48.18;100466.25;4967185;28;20057;-94
2022/08/22 21:45:47;;;;;;;104.47;27.58;;;;;;;21.95;48.32;100468.53;4953237;28;20051;-95
2022/08/22 21:51:52;;;;;;;81.67;28.43;;;;;;;21.64;49.60;100441.53;4961009;28;20133;-92
2022/08/22 21:54:28;;;;;;;67.63;27.23;;;;;;;21.84;48.57;100475.81;4949667;28;20106;-91
2022/08/22 21:57:45;;;;;;;67.60;28.63;;;;;;;21.80;49.64;100477.69;4925741;29;20107;-91
2022/08/22 22:00:43;;;;;;;65.30;26.88;;;;;;;21.73;49.72;100474.75;4902085;29;20063;-91
2022/08/22 22:03:10;;;;;;;66.18;28.17;;;;;;;21.72;49.19;100487.03;4940213;29;20058;-91
2022/08/22 22:06:05;;;;;;;71.88;27.65;;;;;;;21.67;49.59;100485.34;4936938;29;20091;-92
2022/08/22 22:08:43;;;;;;;73.97;30.48;;;;;;;21.28;49.25;100426.69;4937100;29;20043;-91
2022/08/22 22:11:13;;;;;;;61.17;28.40;;;;;;;21.61;49.52;100485.97;4917934;29;20080;-92
2022/08/22 22:13:42;;;;;;;73.43;29.52;;;;;;;21.24;49.40;100436.91;4912292;29;20072;-94
2022/08/22 22:16:10;;;;;;;78.82;30.30;;;;;;;20.94;49.42;100394.81;4921992;29;20039;-94
2022/08/22 22:18:50;;;;;;;79.03;31.42;;;;;;;21.21;49.34;100443.19;4902906;29;20059;-94
2022/08/22 22:21:19;;;;;;;79.55;31.95;;;;;;;21.19;49.63;100450.28;4923241;29;20048;-93
2022/08/22 22:23:45;;;;;;;85.18;32.97;;;;;;;21.26;49.70;100467.97;4907065;29;20095;-94
2022/08/22 22:26:15;;;;;;;89.20;33.90;;;;;;;21.22;49.72;100457.91;4898926;29;20090;-92
2022/08/22 22:28:47;;;;;;;93.45;34.50;;;;;;;21.20;50.34;100465.81;4939826;29;20079;-94
2022/08/22 22:31:18;;;;;;;98.95;38.40;;;;;;;21.23;50.07;100479.00;4908164;29;20047;-94
2022/08/22 22:33:44;;;;;;;99.15;42.08;;;;;;;21.03;49.69;100447.50;4916293;29;20059;-95
2022/08/22 22:39:07;;;;;;;110.18;40.63;;;;;;;21.09;50.13;100463.56;4918025;29;20054;-93
2022/08/22 22:41:35;;;;;;;119.60;39.92;;;;;;;20.80;50.73;100423.06;4941818;29;20070;-95